Time;durP1;ratioP1;P1;durP2;ratioP2;P2;SDS_P1;SDS_P2;PMS_P1;PMS_P2;Temp;Humidity;BMP_temperature;BMP_pressure;BME280_temperature;BME280_humidity;BME280_pressure;Samples;Min_cycle;Max_cycle;Signal;HPM_P1;HPM_P2
2021/05/05 00:04:32;;;;;;;1.48;0.65;;;;;;;10.77;61.48;96510.88;10510336;28;20483;-76
2021/05/05 00:09:53;;;;;;;1.20;0.45;;;;;;;10.65;61.45;96510.31;10510455;28;20041;-76
2021/05/05 00:15:18;;;;;;;1.45;0.47;;;;;;;10.50;60.96;96512.41;10510431;28;20040;-75
2021/05/05 00:20:38;;;;;;;2.83;0.40;;;;;;;10.48;62.27;96501.16;10510160;28;20040;-76
2021/05/05 00:25:58;;;;;;;1.10;0.50;;;;;;;10.45;63.60;96508.00;10510038;28;20044;-76
2021/05/05 00:31:19;;;;;;;0.85;0.40;;;;;;;10.41;62.07;96499.44;10531911;28;20040;-76
2021/05/05 00:36:40;;;;;;;0.70;0.38;;;;;;;10.37;61.76;96487.38;10518266;28;20367;-75
2021/05/05 00:42:00;;;;;;;0.70;0.20;;;;;;;10.29;61.54;96474.47;10503884;28;20043;-75
2021/05/05 00:47:22;;;;;;;0.50;0.10;;;;;;;10.23;61.07;96476.22;10531546;28;20402;-75
2021/05/05 00:52:43;;;;;;;0.35;0.10;;;;;;;10.20;61.14;96478.19;10517701;28;20426;-75
2021/05/05 00:58:03;;;;;;;1.10;0.10;;;;;;;10.24;61.85;96469.31;10531041;28;20048;-76
2021/05/05 01:03:24;;;;;;;0.30;0.10;;;;;;;10.23;61.49;96473.44;10516642;28;20521;-76
2021/05/05 01:08:46;;;;;;;0.40;0.10;;;;;;;10.23;61.40;96457.47;10502040;28;20097;-75
2021/05/05 01:14:07;;;;;;;0.35;0.15;;;;;;;10.17;61.55;96464.78;10516626;28;20044;-75
2021/05/05 01:19:28;;;;;;;0.52;0.10;;;;;;;10.08;61.29;96462.94;10516263;28;20418;-76
2021/05/05 01:24:48;;;;;;;0.47;0.10;;;;;;;10.04;60.65;96457.88;10502243;28;20040;-75
2021/05/05 01:30:12;;;;;;;0.57;0.10;;;;;;;9.94;60.67;96455.31;10515723;28;20040;-75
2021/05/05 01:35:32;;;;;;;0.47;0.10;;;;;;;9.95;60.64;96456.78;10529654;28;20040;-75
2021/05/05 01:40:53;;;;;;;0.55;0.20;;;;;;;9.96;59.97;96455.41;10515727;28;20040;-76
2021/05/05 01:46:14;;;;;;;2.20;0.40;;;;;;;9.97;60.21;96453.34;10501405;28;20097;-75
2021/05/05 01:51:35;;;;;;;1.20;0.20;;;;;;;9.84;59.38;96446.44;10529605;28;20532;-75
2021/05/05 01:57:21;;;;;;;1.42;0.20;;;;;;;9.78;57.93;96448.94;10514853;28;20486;-75
2021/05/05 02:02:44;;;;;;;3.10;0.20;;;;;;;9.64;58.06;96457.31;10528373;28;20044;-76
2021/05/05 02:08:10;;;;;;;1.23;0.20;;;;;;;9.57;58.22;96452.78;10495428;28;20467;-75
2021/05/05 02:13:31;;;;;;;3.08;0.20;;;;;;;9.53;57.77;96435.13;10514313;28;20043;-75
2021/05/05 02:18:52;;;;;;;1.77;0.20;;;;;;;9.55;58.42;96426.88;10514267;28;20506;-75
2021/05/05 02:24:12;;;;;;;1.63;0.13;;;;;;;9.48;58.49;96444.63;10513735;28;20036;-75
2021/05/05 02:29:34;;;;;;;3.47;0.50;;;;;;;9.56;57.46;96453.41;10500006;28;20048;-75
2021/05/05 02:35:04;;;;;;;2.35;0.30;;;;;;;9.55;58.17;96458.22;10516156;28;20056;-76
2021/05/05 02:40:25;;;;;;;3.50;0.30;;;;;;;9.56;58.03;96439.47;10527151;28;20070;-75
2021/05/05 02:45:47;;;;;;;1.00;0.20;;;;;;;9.55;57.80;96421.28;10478482;28;20047;-76
2021/05/05 02:51:08;;;;;;;1.55;0.20;;;;;;;9.61;58.44;96411.19;10512178;28;20036;-75
2021/05/05 02:56:29;;;;;;;1.58;0.22;;;;;;;9.62;57.69;96400.75;10498734;28;20047;-76
2021/05/05 03:01:52;;;;;;;3.50;0.20;;;;;;;9.61;57.68;96419.53;10505514;28;20047;-76
2021/05/05 03:07:13;;;;;;;2.28;0.28;;;;;;;9.60;57.52;96422.97;10512106;28;20048;-75
2021/05/05 03:12:33;;;;;;;3.20;0.28;;;;;;;9.65;57.46;96416.22;10512085;28;20044;-75
2021/05/05 03:17:54;;;;;;;1.58;0.30;;;;;;;9.63;57.74;96410.56;10497976;28;20048;-75
2021/05/05 03:23:16;;;;;;;2.45;0.40;;;;;;;9.65;57.44;96424.59;10512416;28;20059;-76
2021/05/05 03:28:36;;;;;;;3.90;0.43;;;;;;;9.63;57.56;96422.44;10511600;28;20489;-76
2021/05/05 03:33:57;;;;;;;1.98;0.50;;;;;;;9.58;57.46;96408.94;10525585;28;20090;-76
2021/05/05 03:39:17;;;;;;;3.05;0.40;;;;;;;9.52;57.17;96400.25;10497291;28;20059;-76
2021/05/05 03:44:38;;;;;;;4.03;0.30;;;;;;;9.46;57.86;96414.63;10497301;28;20048;-75
2021/05/05 03:49:58;;;;;;;4.10;0.52;;;;;;;9.35;56.97;96426.56;10503490;28;20040;-76
2021/05/05 03:55:20;;;;;;;4.05;0.30;;;;;;;9.33;57.21;96406.97;10508695;28;20506;-77
2021/05/05 04:00:41;;;;;;;2.20;0.32;;;;;;;9.33;57.04;96406.97;10506314;28;20047;-75
2021/05/05 04:06:01;;;;;;;1.90;0.40;;;;;;;9.33;56.93;96395.84;10553938;28;20121;-76
2021/05/05 04:11:22;;;;;;;4.38;0.30;;;;;;;9.34;57.05;96392.44;10519151;28;20051;-76
2021/05/05 04:16:42;;;;;;;2.63;0.30;;;;;;;9.29;57.49;96385.22;10519850;28;20360;-74
2021/05/05 04:22:22;;;;;;;3.47;0.30;;;;;;;9.27;57.60;96371.22;10565695;28;20486;-75
2021/05/05 04:28:00;;;;;;;5.68;0.30;;;;;;;9.15;58.08;96381.72;10565654;28;20112;-75
2021/05/05 04:33:21;;;;;;;2.85;0.40;;;;;;;9.12;57.83;96366.25;10545479;28;20054;-76
2021/05/05 04:38:42;;;;;;;4.10;0.40;;;;;;;9.02;57.78;96388.00;10559878;28;20048;-76
2021/05/05 04:44:03;;;;;;;3.22;0.32;;;;;;;9.07;57.97;96392.44;10559868;28;20055;-75
2021/05/05 04:49:24;;;;;;;3.70;0.40;;;;;;;9.07;58.69;96378.50;10522064;28;20048;-76
2021/05/05 04:54:45;;;;;;;4.15;0.50;;;;;;;8.97;58.50;96384.28;10503756;28;20395;-76
2021/05/05 05:00:09;;;;;;;2.67;0.35;;;;;;;8.91;58.64;96395.09;10500029;28;20052;-76
2021/05/05 05:05:30;;;;;;;3.92;0.57;;;;;;;8.80;59.21;96405.00;10516739;28;20059;-75
2021/05/05 05:10:51;;;;;;;1.42;0.30;;;;;;;8.86;58.98;96433.13;10516952;28;20044;-76
2021/05/05 05:16:11;;;;;;;4.93;0.88;;;;;;;8.80;58.98;96460.63;10516188;28;20044;-75
2021/05/05 05:21:32;;;;;;;3.28;0.77;;;;;;;8.81;58.79;96455.78;10514664;28;20048;-76
2021/05/05 05:26:55;;;;;;;3.03;0.30;;;;;;;8.92;58.47;96438.28;10516807;28;20040;-75
2021/05/05 05:32:15;;;;;;;4.65;0.90;;;;;;;8.96;57.80;96448.91;10500559;28;20036;-76
2021/05/05 05:37:38;;;;;;;3.55;1.25;;;;;;;8.96;57.84;96440.56;10525108;28;20097;-76
2021/05/05 05:42:58;;;;;;;2.15;0.40;;;;;;;8.96;57.18;96437.78;10512048;28;20043;-76
2021/05/05 05:48:19;;;;;;;1.08;0.38;;;;;;;9.06;57.68;96441.81;10513213;28;20074;-75
2021/05/05 05:53:39;;;;;;;2.67;0.35;;;;;;;9.11;56.93;96442.75;10515160;28;20044;-75
2021/05/05 05:59:00;;;;;;;2.80;0.40;;;;;;;9.39;56.77;96438.66;10500916;28;20085;-75
2021/05/05 06:04:21;;;;;;;2.78;0.52;;;;;;;9.83;57.30;96433.84;10514532;28;20113;-75
2021/05/05 06:09:42;;;;;;;2.65;0.60;;;;;;;10.04;55.27;96400.06;10528951;28;20063;-74
2021/05/05 06:15:06;;;;;;;5.15;0.52;;;;;;;9.87;54.92;96392.25;10528744;28;20407;-76
2021/05/05 06:20:26;;;;;;;3.33;0.32;;;;;;;9.86;55.06;96407.53;10514247;28;20051;-76
2021/05/05 06:25:47;;;;;;;1.85;0.43;;;;;;;9.80;55.29;96437.88;10526980;28;20533;-76
2021/05/05 06:31:08;;;;;;;2.88;0.68;;;;;;;9.63;55.81;96428.00;10527516;28;20048;-76
2021/05/05 06:36:28;;;;;;;4.82;0.45;;;;;;;9.63;55.29;96425.22;10513469;28;20453;-76
2021/05/05 06:41:48;;;;;;;3.30;0.40;;;;;;;9.59;55.28;96410.38;10499060;28;20085;-76
2021/05/05 06:47:10;;;;;;;3.58;0.60;;;;;;;9.68;55.43;96429.66;10499133;28;20059;-76
2021/05/05 06:52:30;;;;;;;3.92;0.47;;;;;;;9.78;54.96;96431.50;10499167;28;20479;-76
2021/05/05 06:57:51;;;;;;;3.97;0.40;;;;;;;9.89;55.39;96439.00;10484527;28;20490;-76
2021/05/05 07:03:12;;;;;;;3.72;0.40;;;;;;;9.72;54.88;96429.13;10526353;28;20085;-74
2021/05/05 07:08:32;;;;;;;2.60;0.47;;;;;;;9.50;55.13;96453.09;10526131;28;20055;-75
2021/05/05 07:13:54;;;;;;;1.65;0.40;;;;;;;9.58;55.19;96459.06;10498041;28;20036;-75
2021/05/05 07:19:14;;;;;;;2.95;0.55;;;;;;;9.61;55.30;96480.13;10511753;28;20040;-75
2021/05/05 07:24:35;;;;;;;3.05;0.80;;;;;;;9.63;55.39;96475.38;10511621;28;20491;-75
2021/05/05 07:29:55;;;;;;;3.08;0.43;;;;;;;9.89;54.83;96467.59;10511451;28;20046;-76
2021/05/05 07:35:18;;;;;;;4.22;0.40;;;;;;;10.07;54.22;96462.22;10511106;28;20094;-75
2021/05/05 07:47:16;;;;;;;3.78;0.30;;;;;;;10.58;54.14;96456.28;10520501;28;20055;-76
2021/05/05 07:52:16;;;;;;;3.57;0.50;;;;;;;12.84;52.45;96451.88;10522171;28;20085;-75
2021/05/05 07:57:37;;;;;;;2.22;0.40;;;;;;;13.19;49.21;96456.69;10553751;28;20320;-75
2021/05/05 08:02:57;;;;;;;2.53;0.43;;;;;;;13.24;49.92;96457.56;10510577;28;20048;-75
2021/05/05 08:08:17;;;;;;;2.08;0.40;;;;;;;13.23;47.87;96456.13;10510245;28;20044;-75
2021/05/05 08:13:39;;;;;;;2.33;0.35;;;;;;;12.47;48.61;96452.53;10559244;28;20043;-75
2021/05/05 08:18:59;;;;;;;1.70;0.40;;;;;;;12.20;48.99;96451.47;10551348;28;20044;-75
2021/05/05 08:24:20;;;;;;;2.67;0.50;;;;;;;12.17;49.21;96457.66;10551939;28;20048;-75
2021/05/05 08:29:40;;;;;;;2.78;0.57;;;;;;;11.81;49.03;96451.97;10537850;28;20040;-75
2021/05/05 08:35:00;;;;;;;1.58;0.57;;;;;;;12.26;49.11;96460.13;10551685;28;20032;-73
2021/05/05 08:40:21;;;;;;;1.95;0.43;;;;;;;12.74;47.96;96471.81;10551469;28;20119;-75
2021/05/05 08:45:41;;;;;;;1.50;0.50;;;;;;;13.40;46.50;96472.88;10565658;28;20043;-74
2021/05/05 08:51:10;;;;;;;2.65;0.40;;;;;;;13.30;45.68;96466.91;10556873;28;20100;-74
2021/05/05 08:56:35;;;;;;;2.22;0.50;;;;;;;13.61;45.69;96459.59;10560710;28;20046;-75
2021/05/05 09:01:56;;;;;;;1.77;0.40;;;;;;;12.93;45.41;96452.88;10573604;28;20040;-76
2021/05/05 09:07:27;;;;;;;1.95;0.50;;;;;;;12.84;46.47;96463.09;10572944;28;20055;-75
2021/05/05 09:12:50;;;;;;;2.58;0.52;;;;;;;14.50;44.53;96457.00;10539193;28;20398;-75
2021/05/05 09:18:24;;;;;;;3.22;0.57;;;;;;;14.00;43.64;96467.97;10525745;28;20043;-75
2021/05/05 09:23:44;;;;;;;3.10;0.50;;;;;;;16.49;43.83;96452.66;10558141;28;20047;-76
2021/05/05 09:29:05;;;;;;;3.55;0.50;;;;;;;16.68;38.20;96439.72;10544134;28;20466;-75
2021/05/05 09:34:25;;;;;;;3.03;0.40;;;;;;;16.54;39.85;96445.75;10544975;28;20043;-75
2021/05/05 09:39:46;;;;;;;2.42;0.47;;;;;;;16.03;38.23;96461.41;10557350;28;20097;-75
2021/05/05 09:45:11;;;;;;;3.10;0.50;;;;;;;16.19;38.37;96480.78;10558091;28;20116;-77
2021/05/05 09:50:40;;;;;;;3.28;0.50;;;;;;;14.76;39.29;96495.69;10557943;28;20051;-77
2021/05/05 09:56:03;;;;;;;3.45;0.60;;;;;;;15.22;39.34;96470.38;10566627;28;20032;-75
2021/05/05 10:01:24;;;;;;;4.57;0.65;;;;;;;15.65;38.36;96458.28;10570329;28;20040;-77
2021/05/05 10:06:45;;;;;;;1.73;0.32;;;;;;;15.33;38.17;96444.69;10556487;28;20055;-77
2021/05/05 10:12:06;;;;;;;3.75;0.60;;;;;;;16.16;38.16;96460.31;10570795;28;20363;-76
2021/05/05 10:17:26;;;;;;;2.08;0.60;;;;;;;22.26;31.44;96450.19;10555936;28;20039;-77
2021/05/05 10:22:46;;;;;;;2.60;0.60;;;;;;;32.46;17.74;96431.00;10541676;28;20036;-75
2021/05/05 10:28:07;;;;;;;2.78;0.38;;;;;;;32.74;15.71;96438.50;10495362;28;20044;-76
2021/05/05 10:33:31;;;;;;;3.05;0.43;;;;;;;27.41;18.12;96440.00;10516294;28;20498;-76
2021/05/05 10:38:51;;;;;;;3.75;0.50;;;;;;;29.53;16.85;96430.03;10505314;28;20040;-76
2021/05/05 10:44:11;;;;;;;1.98;0.50;;;;;;;26.60;19.61;96415.66;10482964;28;20040;-75
2021/05/05 10:49:31;;;;;;;3.40;0.40;;;;;;;25.68;20.11;96443.38;10519553;28;20449;-77
2021/05/05 10:55:18;;;;;;;2.85;0.40;;;;;;;23.62;20.20;96423.69;10486739;28;20044;-75
2021/05/05 11:00:55;;;;;;;3.30;0.32;;;;;;;20.82;21.22;96419.06;10388532;28;20503;-77
2021/05/05 11:06:31;;;;;;;2.15;0.30;;;;;;;19.02;23.92;96432.78;10408895;28;20045;-74
2021/05/05 11:11:53;;;;;;;1.80;0.40;;;;;;;18.23;24.24;96426.59;10408729;28;20088;-73
2021/05/05 11:17:27;;;;;;;1.98;0.30;;;;;;;17.40;25.30;96432.16;10390920;28;20058;-74
2021/05/05 11:22:48;;;;;;;3.38;0.50;;;;;;;18.16;24.98;96436.41;10373220;28;20079;-75
2021/05/05 11:28:09;;;;;;;2.42;0.22;;;;;;;19.27;24.85;96439.47;10406437;28;20150;-75
2021/05/05 11:33:56;;;;;;;3.23;0.70;;;;;;;19.52;24.37;96440.50;10505570;28;20036;-75
2021/05/05 11:39:21;;;;;;;2.25;0.50;;;;;;;18.55;25.66;96443.38;10523072;28;20047;-76
2021/05/05 11:44:53;;;;;;;2.10;0.47;;;;;;;17.92;26.13;96433.84;10519798;28;20047;-75
2021/05/05 11:50:20;;;;;;;1.35;0.30;;;;;;;17.91;27.07;96429.59;10502978;28;20449;-74
2021/05/05 11:55:41;;;;;;;1.65;0.47;;;;;;;17.80;27.40;96417.41;10513974;28;20047;-74
2021/05/05 12:01:01;;;;;;;2.13;0.70;;;;;;;18.07;27.12;96432.72;10500703;28;20040;-75
2021/05/05 12:06:25;;;;;;;1.95;0.52;;;;;;;18.11;27.41;96420.75;10513844;28;20487;-74
2021/05/05 12:11:45;;;;;;;1.50;0.40;;;;;;;18.03;27.35;96464.41;10523012;28;20048;-75
2021/05/05 12:22:57;;;;;;;3.30;0.50;;;;;;;18.01;27.68;96427.66;10522793;28;20044;-74
2021/05/05 12:28:19;;;;;;;2.75;0.40;;;;;;;18.01;27.42;96419.19;10517203;28;20089;-73
2021/05/05 12:33:41;;;;;;;2.72;0.35;;;;;;;17.89;27.08;96421.09;10503465;28;20506;-73
2021/05/05 12:39:12;;;;;;;2.67;0.30;;;;;;;18.09;27.28;96429.22;10518599;28;20047;-76
2021/05/05 12:44:33;;;;;;;2.80;0.55;;;;;;;17.90;26.92;96422.53;10505091;28;20102;-74
2021/05/05 12:50:00;;;;;;;3.15;0.52;;;;;;;17.81;27.34;96413.19;10532749;28;20048;-74
2021/05/05 12:55:33;;;;;;;1.83;0.43;;;;;;;17.40;26.10;96434.25;10517638;28;20036;-78
2021/05/05 13:00:53;;;;;;;1.95;0.52;;;;;;;16.61;26.26;96405.06;10503986;28;20055;-77
2021/05/05 13:06:14;;;;;;;1.77;0.52;;;;;;;16.11;27.56;96429.91;10517456;28;20052;-78
2021/05/05 13:11:38;;;;;;;1.88;0.40;;;;;;;16.58;26.60;96406.38;10517090;28;20391;-78
2021/05/05 13:34:14;;;;;;;2.30;0.32;;;;;;;17.19;23.75;96433.13;10504269;28;20128;-77
2021/05/05 13:39:36;;;;;;;1.83;0.30;;;;;;;17.56;21.79;96425.38;10491732;28;20090;-76
2021/05/05 13:45:02;;;;;;;1.85;0.30;;;;;;;17.70;20.44;96445.44;10530070;28;20040;-76
2021/05/05 13:50:22;;;;;;;3.08;0.38;;;;;;;17.10;21.56;96456.91;10502899;28;20054;-75
2021/05/05 13:55:43;;;;;;;2.08;0.20;;;;;;;16.49;21.67;96472.38;10545456;28;20407;-76
2021/05/05 14:01:03;;;;;;;1.13;0.28;;;;;;;16.13;22.60;96475.00;10489185;28;20052;-76
2021/05/05 14:06:24;;;;;;;1.38;0.47;;;;;;;16.41;22.00;96500.34;10515958;28;20052;-78
2021/05/05 14:11:44;;;;;;;0.60;0.22;;;;;;;16.40;21.40;96516.50;10515945;28;20036;-77
2021/05/05 14:17:04;;;;;;;3.97;0.38;;;;;;;16.14;22.36;96558.78;10514939;28;20418;-79
2021/05/05 14:22:25;;;;;;;6.35;0.45;;;;;;;15.96;23.79;96575.91;10514365;28;20403;-79
2021/05/05 14:27:45;;;;;;;5.57;0.80;;;;;;;15.44;25.22;96589.09;10514246;28;20052;-77
2021/05/05 14:33:06;;;;;;;4.65;0.40;;;;;;;15.62;25.02;96592.50;10485676;28;20049;-77
2021/05/05 14:38:32;;;;;;;1.50;0.40;;;;;;;15.15;27.29;96599.50;10524526;28;20498;-78
2021/05/05 14:49:50;;;;;;;1.77;0.30;;;;;;;14.17;27.37;96578.66;10321572;28;20057;-76
2021/05/05 14:55:12;;;;;;;1.70;0.40;;;;;;;14.08;27.86;96598.66;10499161;28;20437;-76
2021/05/05 15:00:34;;;;;;;2.60;0.63;;;;;;;13.85;28.72;96600.69;10498361;28;20040;-76
2021/05/05 15:06:00;;;;;;;2.90;0.30;;;;;;;13.88;28.65;96641.44;10511903;28;20495;-76
2021/05/05 15:28:20;;;;;;;3.47;0.40;;;;;;;11.80;35.87;96681.88;10517543;28;20521;-79
2021/05/05 15:39:23;;;;;;;1.88;0.40;;;;;;;12.29;35.21;96682.69;10514245;28;20036;-79
2021/05/05 15:44:50;;;;;;;0.80;0.20;;;;;;;12.02;35.55;96696.84;10514577;28;20048;-73
2021/05/05 15:50:13;;;;;;;1.88;0.20;;;;;;;11.42;35.80;96701.78;10512452;28;20380;-73
2021/05/05 15:55:33;;;;;;;1.90;0.22;;;;;;;11.25;36.04;96702.34;10510458;28;20089;-75
2021/05/05 16:00:59;;;;;;;1.17;0.20;;;;;;;11.24;37.18;96725.31;10502988;28;20048;-75
2021/05/05 16:17:37;;;;;;;2.40;0.60;;;;;;;10.42;39.02;96724.06;10528165;28;20085;-80
2021/05/05 16:23:11;;;;;;;0.90;0.30;;;;;;;10.14;40.00;96708.63;10512466;28;20040;-80
2021/05/05 16:56:18;;;;;;;1.38;0.20;;;;;;;9.50;40.92;96748.34;10510015;28;20048;-74
2021/05/05 17:13:00;;;;;;;0.85;0.43;;;;;;;9.11;41.58;96757.34;10517644;28;20044;-74
2021/05/05 17:23:55;;;;;;;1.63;0.20;;;;;;;8.93;41.33;96768.13;10518331;28;20044;-75
2021/05/05 18:19:55;;;;;;;1.00;0.40;;;;;;;7.56;47.46;96856.38;10514438;28;20036;-76
2021/05/05 18:25:31;;;;;;;1.60;0.50;;;;;;;7.39;47.50;96870.53;10488234;28;20044;-77
2021/05/05 18:30:53;;;;;;;0.70;0.20;;;;;;;7.22;48.71;96874.28;10505856;28;20475;-76
2021/05/05 18:36:13;;;;;;;2.05;0.30;;;;;;;7.01;49.59;96880.53;10527441;28;20047;-76
2021/05/05 18:41:39;;;;;;;0.95;0.20;;;;;;;6.81;51.14;96879.88;10499208;28;20044;-77
2021/05/05 19:21:02;;;;;;;2.10;0.22;;;;;;;6.14;52.53;96983.34;10515705;28;20044;-76
2021/05/05 23:28:23;;;;;;;0.77;0.30;;;;;;;4.11;64.59;97114.38;10517085;28;20054;-76
